Weersoverzicht van METAR-stations binnen 150 km

EHRD - Rotterdam Airport
Afstand tot weerstation: ZO 28 km
Update: 22-02-2018 12:55
Helder
Helder
 Wind van ONO
Wind: ONO 20 km/h
Temperatuur: 4°C
Gevoelstemperatuur: -1°C
Dauwpunt: -3°C
Luchtvochtigheid: 61%
Luchtdruk: 1025 hPa
Bewolking: Helder
Zicht: 10 km
2018/02/22 11:55 EHRD 221155Z AUTO 07011KT 030V100 9999 NCD 04/M03 Q1025 NOSIG
EHSC - Goeree Le Sea (Platform ter hoogte van Zeeland)
Afstand tot weerstation: WZW 36 km
Update: 22-02-2018 12:55

 Wind van O
Wind: O 30 km/h
Temperatuur: 3°C
Gevoelstemperatuur: -3°C
Dauwpunt: -5°C
Luchtvochtigheid: 56%
Luchtdruk: 1025 hPa
Zicht: 10 km
2018/02/22 11:55 EHSC 221155Z AUTO 08016KT 9999 ///////// 03/M05 Q1025 W05/H9
 
EHAM - A'dam Schiphol
Afstand tot weerstation: ONO 51 km
Update: 22-02-2018 12:55
Helder
Helder
 Wind van ONO
Wind: ONO 20 km/h
Temperatuur: 4°C
Gevoelstemperatuur: -1°C
Dauwpunt: -4°C
Luchtvochtigheid: 56%
Luchtdruk: 1026 hPa
Overzicht: Helder
Zicht: Meer dan 10 km
2018/02/22 11:55 EHAM 221155Z 06011KT 030V100 CAVOK 04/M04 Q1026 NOSIG
EHSA - Euro Platform (Ter hoogte van Zeeland)
Afstand tot weerstation: W 58 km
Update: 22-02-2018 12:55

 Wind van ONO
Wind: ONO 33 km/h
Temperatuur: 3°C
Gevoelstemperatuur: -3°C
Dauwpunt: -4°C
Luchtvochtigheid: 60%
Luchtdruk: 1025 hPa
Zicht: 10 km
2018/02/22 11:55 EHSA 221155Z AUTO 06018KT 9999 ///////// 03/M04 Q1025 W06/H10
 
EHPG - P11-B Sea (Platform ter hoogte van Zuid Holland)
Afstand tot weerstation: NW 60 km
Update: 22-02-2018 12:55
Helder
Helder
 Wind van ONO
Wind: ONO 33 km/h
Temperatuur: 3°C
Gevoelstemperatuur: -3°C
Dauwpunt: -5°C
Luchtvochtigheid: 56%
Luchtdruk: 1026 hPa
Bewolking: Helder
Zicht: 10 km
2018/02/22 11:55 EHPG 221155Z AUTO 06018KT 9999 NCD 03/M05 Q1026 W///H///
EHWO - Vliegveld Woensdrecht
Afstand tot weerstation: ZZO 65 km
Update: 22-02-2018 12:55
Helder
Helder
 Wind van ONO
Wind: ONO 28 km/h
Temperatuur: 4°C
Gevoelstemperatuur: -1°C
Dauwpunt: -5°C
Luchtvochtigheid: 52%
Luchtdruk: 1024 hPa
Bewolking: Helder
Zicht: 10 km
2018/02/22 11:55 EHWO 221155Z AUTO 07015KT 050V110 9999 NCD 04/M05 Q1024 BLU 07011KT CAVOK TEMPO 07011G21KT
 
EHGR - Vliegveld Gilze-Rijen
Afstand tot weerstation: ZO 79 km
Update: 22-02-2018 12:55
Helder
Helder
 Wind van O
Wind: O 26 km/h
Temperatuur: 4°C
Gevoelstemperatuur: -1°C
Dauwpunt: -5°C
Luchtvochtigheid: 52%
Luchtdruk: 1024 hPa
Bewolking: Helder
Zicht: 10 km
2018/02/22 11:55 EHGR 221155Z AUTO 08014KT 030V120 9999 NCD 04/M05 Q1024 BLU 08014KT 9999 FEW040
EHQE - Hoorn-A Sea (Platform ter hoogte van Noord Holland)
Afstand tot weerstation: N 103 km
Update: 22-02-2018 12:55
Gedeeltelijk bewolkt
Gedeeltelijk bewolkt
 Wind van NO
Wind: NO 22 km/h
Temperatuur: 3°C
Gevoelstemperatuur: -2°C
Dauwpunt: -3°C
Luchtvochtigheid: 65%
Luchtdruk: 1026 hPa
Bewolking: Gedeeltelijk bewolkt
Zicht: 10 km
2018/02/22 11:55 EHQE 221155Z AUTO 05012KT 9999 NSC 03/M03 Q1026 W///H///
 
EHKD - Marinebasis De Kooy (Den Helder)
Afstand tot weerstation: NNO 114 km
Update: 22-02-2018 12:55
Helder
Helder
 Wind van ONO
Wind: ONO 19 km/h
Temperatuur: 3°C
Gevoelstemperatuur: -2°C
Dauwpunt: -2°C
Luchtvochtigheid: 70%
Luchtdruk: 1027 hPa
Bewolking: Helder
Zicht: 10 km
2018/02/22 11:55 EHKD 221155Z AUTO 07010KT 9999 NCD 03/M02 Q1027 BLU 07009KT CAVOK
EHEH - Vliegveld Eindhoven
Afstand tot weerstation: OZO 115 km
Update: 22-02-2018 12:55
Helder
Helder
 Wind van NO
Wind: NO 26 km/h
Temperatuur: 4°C
Gevoelstemperatuur: -1°C
Dauwpunt: -5°C
Luchtvochtigheid: 52%
Luchtdruk: 1024 hPa
Bewolking: Helder
Zicht: 10 km
2018/02/22 11:55 EHEH 221155Z AUTO 05014KT 030V090 9999 NCD 04/M05 Q1024 BLU 06012G22KT CAVOK
 
EHVK - Vliegveld Volkel
Afstand tot weerstation: OZO 124 km
Update: 22-02-2018 12:55
Helder
Helder
 Wind van ONO
Wind: ONO 26 km/h
Temperatuur: 4°C
Gevoelstemperatuur: -1°C
Dauwpunt: -4°C
Luchtvochtigheid: 56%
Luchtdruk: 1024 hPa
Bewolking: Helder
Zicht: 10 km
2018/02/22 11:55 EHVK 221155Z AUTO 06014KT 030V090 9999 NCD 04/M04 Q1024 BLU
EHDL - Vliegveld Deelen
Afstand tot weerstation: O 128 km
Update: 22-02-2018 12:55
Zwaar bewolkt
Zwaar bewolkt
 Wind van NO
Wind: NO 24 km/h
Temperatuur: 4°C
Gevoelstemperatuur: -1°C
Dauwpunt: -4°C
Luchtvochtigheid: 56%
Luchtdruk: 1025 hPa
Bewolking: Zwaar bewolkt
Zicht: 10 km
Details Bewolking: Overwegend bewolkt 1463 m
Zwaar bewolkt 1646 m
2018/02/22 11:55 EHDL 221155Z AUTO 05013KT 340V150 9999 BKN048 OVC054 04/M04 Q1025 BLU